sensor_id;sensor_type;location;lat;lon;timestamp;pressure;altitude;pressure_sealevel;temperature;humidity
56831;BME280;42713;42.676;23.352;2023-04-06T00:00:32;94572.09;;;-0.42;65.21
56831;BME280;42713;42.676;23.352;2023-04-06T00:03:05;94529.56;;;-0.38;65.03
56831;BME280;42713;42.676;23.352;2023-04-06T00:05:31;94534.19;;;-0.49;65.26
56831;BME280;42713;42.676;23.352;2023-04-06T00:07:59;94539.78;;;-0.45;65.13
56831;BME280;42713;42.676;23.352;2023-04-06T00:10:25;94531.53;;;-0.40;65.21
56831;BME280;42713;42.676;23.352;2023-04-06T00:12:51;94521.84;;;-0.38;65.03
56831;BME280;42713;42.676;23.352;2023-04-06T00:15:17;94527.63;;;-0.36;65.05
56831;BME280;42713;42.676;23.352;2023-04-06T00:17:42;94521.25;;;-0.40;65.27
56831;BME280;42713;42.676;23.352;2023-04-06T00:20:08;94519.47;;;-0.40;65.47
56831;BME280;42713;42.676;23.352;2023-04-06T00:22:34;94505.28;;;-0.36;65.34
56831;BME280;42713;42.676;23.352;2023-04-06T00:25:00;94511.19;;;-0.20;65.04
56831;BME280;42713;42.676;23.352;2023-04-06T00:27:25;94511.53;;;-0.23;64.81
56831;BME280;42713;42.676;23.352;2023-04-06T00:29:51;94520.31;;;-0.18;64.86
56831;BME280;42713;42.676;23.352;2023-04-06T00:32:16;94507.63;;;-0.19;64.77
56831;BME280;42713;42.676;23.352;2023-04-06T00:34:42;94506.56;;;-0.25;65.00
56831;BME280;42713;42.676;23.352;2023-04-06T00:37:07;94493.47;;;-0.30;65.25
56831;BME280;42713;42.676;23.352;2023-04-06T00:39:33;94506.78;;;-0.26;64.90
56831;BME280;42713;42.676;23.352;2023-04-06T00:41:58;94495.84;;;-0.28;65.30
56831;BME280;42713;42.676;23.352;2023-04-06T00:44:25;94504.19;;;-0.26;65.54
56831;BME280;42713;42.676;23.352;2023-04-06T00:46:51;94498.00;;;-0.32;65.53
56831;BME280;42713;42.676;23.352;2023-04-06T00:49:16;94486.78;;;-0.24;65.32
56831;BME280;42713;42.676;23.352;2023-04-06T00:51:42;94495.84;;;-0.28;65.24
56831;BME280;42713;42.676;23.352;2023-04-06T00:54:07;94483.16;;;-0.30;65.28
56831;BME280;42713;42.676;23.352;2023-04-06T00:56:33;94494.13;;;-0.21;65.34
56831;BME280;42713;42.676;23.352;2023-04-06T00:58:58;94491.13;;;-0.25;65.21
56831;BME280;42713;42.676;23.352;2023-04-06T01:01:24;94487.41;;;-0.22;64.85
56831;BME280;42713;42.676;23.352;2023-04-06T01:03:50;94483.09;;;-0.37;65.46
56831;BME280;42713;42.676;23.352;2023-04-06T01:06:16;94497.59;;;-0.29;65.79
56831;BME280;42713;42.676;23.352;2023-04-06T01:08:42;94484.19;;;-0.24;65.72
56831;BME280;42713;42.676;23.352;2023-04-06T01:11:07;94498.75;;;-0.17;64.58
56831;BME280;42713;42.676;23.352;2023-04-06T01:13:32;94486.50;;;-0.14;64.63
56831;BME280;42713;42.676;23.352;2023-04-06T01:15:58;94492.00;;;-0.18;64.94
56831;BME280;42713;42.676;23.352;2023-04-06T01:18:27;94476.75;;;-0.19;64.96
56831;BME280;42713;42.676;23.352;2023-04-06T01:20:53;94480.50;;;-0.22;64.90
56831;BME280;42713;42.676;23.352;2023-04-06T01:23:19;94473.31;;;-0.26;65.60
56831;BME280;42713;42.676;23.352;2023-04-06T01:25:44;94473.66;;;-0.29;65.21
56831;BME280;42713;42.676;23.352;2023-04-06T01:28:10;94473.16;;;-0.40;65.50
56831;BME280;42713;42.676;23.352;2023-04-06T01:30:35;94454.34;;;-0.40;66.00
56831;BME280;42713;42.676;23.352;2023-04-06T01:33:01;94466.25;;;-0.39;66.07
56831;BME280;42713;42.676;23.352;2023-04-06T01:35:27;94473.41;;;-0.35;65.80
56831;BME280;42713;42.676;23.352;2023-04-06T01:37:52;94453.19;;;-0.38;65.98
56831;BME280;42713;42.676;23.352;2023-04-06T01:40:18;94492.47;;;-0.29;64.89
56831;BME280;42713;42.676;23.352;2023-04-06T01:42:43;94468.88;;;-0.33;65.63
56831;BME280;42713;42.676;23.352;2023-04-06T01:45:09;94454.47;;;-0.27;65.64
56831;BME280;42713;42.676;23.352;2023-04-06T01:47:35;94451.81;;;-0.34;65.76
56831;BME280;42713;42.676;23.352;2023-04-06T01:50:00;94454.47;;;-0.27;66.13
56831;BME280;42713;42.676;23.352;2023-04-06T01:52:26;94443.22;;;-0.26;65.89
56831;BME280;42713;42.676;23.352;2023-04-06T01:54:51;94450.31;;;-0.28;65.84
56831;BME280;42713;42.676;23.352;2023-04-06T01:57:17;94443.88;;;-0.39;66.06
56831;BME280;42713;42.676;23.352;2023-04-06T01:59:43;94454.94;;;-0.38;66.03
56831;BME280;42713;42.676;23.352;2023-04-06T02:02:08;94464.69;;;-0.34;66.35
56831;BME280;42713;42.676;23.352;2023-04-06T02:04:34;94452.72;;;-0.26;65.42
56831;BME280;42713;42.676;23.352;2023-04-06T02:06:59;94442.44;;;-0.26;65.59
56831;BME280;42713;42.676;23.352;2023-04-06T02:09:25;94450.06;;;-0.33;66.10
56831;BME280;42713;42.676;23.352;2023-04-06T02:11:50;94444.91;;;-0.33;66.01
56831;BME280;42713;42.676;23.352;2023-04-06T02:14:16;94442.44;;;-0.26;65.85
56831;BME280;42713;42.676;23.352;2023-04-06T02:16:41;94434.09;;;-0.28;66.53
56831;BME280;42713;42.676;23.352;2023-04-06T02:19:07;94447.47;;;-0.18;66.08
56831;BME280;42713;42.676;23.352;2023-04-06T02:21:32;94470.00;;;-0.20;65.74
56831;BME280;42713;42.676;23.352;2023-04-06T02:23:58;94441.50;;;-0.19;65.76
56831;BME280;42713;42.676;23.352;2023-04-06T02:26:24;94439.38;;;-0.15;65.55
56831;BME280;42713;42.676;23.352;2023-04-06T02:28:49;94441.75;;;-0.13;65.26
56831;BME280;42713;42.676;23.352;2023-04-06T02:31:15;94455.84;;;-0.09;65.68
56831;BME280;42713;42.676;23.352;2023-04-06T02:33:40;94440.41;;;-0.09;65.80
56831;BME280;42713;42.676;23.352;2023-04-06T02:36:06;94441.41;;;-0.10;65.48
56831;BME280;42713;42.676;23.352;2023-04-06T02:38:31;94445.38;;;-0.08;65.61
56831;BME280;42713;42.676;23.352;2023-04-06T02:40:57;94449.28;;;-0.12;65.52
56831;BME280;42713;42.676;23.352;2023-04-06T02:43:22;94440.16;;;-0.14;65.81
56831;BME280;42713;42.676;23.352;2023-04-06T02:45:48;94448.31;;;-0.11;65.97
56831;BME280;42713;42.676;23.352;2023-04-06T02:48:13;94445.75;;;-0.11;65.91
56831;BME280;42713;42.676;23.352;2023-04-06T02:50:39;94443.34;;;-0.12;65.62
56831;BME280;42713;42.676;23.352;2023-04-06T02:53:05;94451.94;;;-0.05;65.85
56831;BME280;42713;42.676;23.352;2023-04-06T02:55:31;94452.50;;;-0.10;66.31
56831;BME280;42713;42.676;23.352;2023-04-06T02:57:56;94439.06;;;-0.05;66.25
56831;BME280;42713;42.676;23.352;2023-04-06T03:00:22;94442.63;;;-0.06;65.94
56831;BME280;42713;42.676;23.352;2023-04-06T03:02:47;94450.34;;;-0.06;65.88
56831;BME280;42713;42.676;23.352;2023-04-06T03:05:13;94442.94;;;-0.16;66.15
56831;BME280;42713;42.676;23.352;2023-04-06T03:07:38;94454.44;;;-0.12;66.21
56831;BME280;42713;42.676;23.352;2023-04-06T03:10:04;94433.69;;;-0.10;65.95
56831;BME280;42713;42.676;23.352;2023-04-06T03:12:30;94445.19;;;-0.06;65.78
56831;BME280;42713;42.676;23.352;2023-04-06T03:14:55;94453.91;;;-0.07;66.09
56831;BME280;42713;42.676;23.352;2023-04-06T03:17:21;94439.81;;;-0.11;65.78
56831;BME280;42713;42.676;23.352;2023-04-06T03:19:46;94434.81;;;-0.13;65.48
56831;BME280;42713;42.676;23.352;2023-04-06T03:22:12;94438.56;;;-0.16;65.41
56831;BME280;42713;42.676;23.352;2023-04-06T03:24:37;94446.28;;;-0.16;65.50
56831;BME280;42713;42.676;23.352;2023-04-06T03:27:03;94443.09;;;-0.18;65.28
56831;BME280;42713;42.676;23.352;2023-04-06T03:29:28;94429.44;;;-0.18;66.03
56831;BME280;42713;42.676;23.352;2023-04-06T03:31:54;94435.44;;;-0.11;65.70
56831;BME280;42713;42.676;23.352;2023-04-06T03:34:20;94434.47;;;-0.10;65.30
56831;BME280;42713;42.676;23.352;2023-04-06T03:36:45;94423.81;;;-0.07;65.55
56831;BME280;42713;42.676;23.352;2023-04-06T03:39:12;94432.88;;;-0.11;65.67
56831;BME280;42713;42.676;23.352;2023-04-06T03:41:37;94442.53;;;-0.13;65.51
56831;BME280;42713;42.676;23.352;2023-04-06T03:44:02;94432.09;;;-0.11;65.52
56831;BME280;42713;42.676;23.352;2023-04-06T03:46:28;94441.03;;;-0.07;65.48
56831;BME280;42713;42.676;23.352;2023-04-06T03:48:53;94433.69;;;-0.10;65.47
56831;BME280;42713;42.676;23.352;2023-04-06T03:51:19;94427.53;;;-0.09;65.55
56831;BME280;42713;42.676;23.352;2023-04-06T03:53:44;94417.06;;;-0.08;65.24
56831;BME280;42713;42.676;23.352;2023-04-06T03:56:10;94446.44;;;-0.02;65.30
56831;BME280;42713;42.676;23.352;2023-04-06T03:58:36;94436.91;;;-0.02;65.13
56831;BME280;42713;42.676;23.352;2023-04-06T04:01:01;94434.91;;;-0.06;64.80
56831;BME280;42713;42.676;23.352;2023-04-06T04:03:27;94431.00;;;-0.02;64.73
56831;BME280;42713;42.676;23.352;2023-04-06T04:05:53;94422.53;;;0.04;64.99
56831;BME280;42713;42.676;23.352;2023-04-06T04:08:20;94436.78;;;0.07;64.67
56831;BME280;42713;42.676;23.352;2023-04-06T04:10:45;94440.53;;;0.04;65.36
56831;BME280;42713;42.676;23.352;2023-04-06T04:13:11;94443.94;;;0.05;66.32
56831;BME280;42713;42.676;23.352;2023-04-06T04:15:36;94435.59;;;0.03;66.98
56831;BME280;42713;42.676;23.352;2023-04-06T04:18:02;94436.56;;;0.02;67.09
56831;BME280;42713;42.676;23.352;2023-04-06T04:20:27;94437.97;;;0.04;66.46
56831;BME280;42713;42.676;23.352;2023-04-06T04:22:53;94439.22;;;0.08;65.87
56831;BME280;42713;42.676;23.352;2023-04-06T04:25:19;94434.97;;;0.01;66.43
56831;BME280;42713;42.676;23.352;2023-04-06T04:27:45;94431.91;;;-0.10;66.70
56831;BME280;42713;42.676;23.352;2023-04-06T04:30:10;94434.03;;;-0.13;66.72
56831;BME280;42713;42.676;23.352;2023-04-06T04:32:36;94478.00;;;-0.15;66.70
56831;BME280;42713;42.676;23.352;2023-04-06T04:35:01;94438.84;;;-0.10;66.89
56831;BME280;42713;42.676;23.352;2023-04-06T04:37:27;94446.00;;;-0.06;66.45
56831;BME280;42713;42.676;23.352;2023-04-06T04:39:52;94433.91;;;-0.05;66.19
56831;BME280;42713;42.676;23.352;2023-04-06T04:42:18;94444.34;;;0.08;65.81
56831;BME280;42713;42.676;23.352;2023-04-06T04:44:43;94439.63;;;0.12;65.55
56831;BME280;42713;42.676;23.352;2023-04-06T04:47:09;94438.66;;;0.13;65.21
56831;BME280;42713;42.676;23.352;2023-04-06T04:49:34;94442.56;;;0.09;65.39
56831;BME280;42713;42.676;23.352;2023-04-06T04:52:00;94442.84;;;0.14;65.26
56831;BME280;42713;42.676;23.352;2023-04-06T04:54:25;94430.31;;;0.11;64.91
56831;BME280;42713;42.676;23.352;2023-04-06T04:56:51;94427.75;;;0.11;65.08
56831;BME280;42713;42.676;23.352;2023-04-06T04:59:17;94462.19;;;0.10;64.86
56831;BME280;42713;42.676;23.352;2023-04-06T05:01:47;94431.66;;;0.07;65.28
56831;BME280;42713;42.676;23.352;2023-04-06T05:04:13;94437.63;;;0.07;65.02
56831;BME280;42713;42.676;23.352;2023-04-06T05:06:38;94439.88;;;0.17;65.30
56831;BME280;42713;42.676;23.352;2023-04-06T05:09:04;94431.41;;;0.23;65.05
56831;BME280;42713;42.676;23.352;2023-04-06T05:11:30;94435.03;;;0.29;65.02
56831;BME280;42713;42.676;23.352;2023-04-06T05:13:56;94437.13;;;0.19;64.99
56831;BME280;42713;42.676;23.352;2023-04-06T05:16:21;94454.97;;;0.20;65.47
56831;BME280;42713;42.676;23.352;2023-04-06T05:18:48;94427.00;;;0.17;65.60
56831;BME280;42713;42.676;23.352;2023-04-06T05:21:14;94442.69;;;0.22;65.44
56831;BME280;42713;42.676;23.352;2023-04-06T05:23:39;94439.31;;;0.22;65.45
56831;BME280;42713;42.676;23.352;2023-04-06T05:26:05;94451.16;;;0.16;65.53
56831;BME280;42713;42.676;23.352;2023-04-06T05:28:31;94442.84;;;0.14;66.22
56831;BME280;42713;42.676;23.352;2023-04-06T05:30:57;94447.22;;;0.20;66.03
56831;BME280;42713;42.676;23.352;2023-04-06T05:33:23;94437.91;;;0.19;66.31
56831;BME280;42713;42.676;23.352;2023-04-06T05:35:49;94444.16;;;0.10;67.05
56831;BME280;42713;42.676;23.352;2023-04-06T05:38:14;94435.75;;;0.01;67.56
56831;BME280;42713;42.676;23.352;2023-04-06T05:40:40;94441.22;;;0.13;67.33
56831;BME280;42713;42.676;23.352;2023-04-06T05:43:07;94436.50;;;0.17;67.38
56831;BME280;42713;42.676;23.352;2023-04-06T05:45:33;94453.38;;;0.19;67.92
56831;BME280;42713;42.676;23.352;2023-04-06T05:47:58;94448.47;;;0.24;67.59
56831;BME280;42713;42.676;23.352;2023-04-06T05:50:24;94428.34;;;0.13;67.97
56831;BME280;42713;42.676;23.352;2023-04-06T05:52:50;94433.31;;;0.14;67.62
56831;BME280;42713;42.676;23.352;2023-04-06T05:55:16;94431.16;;;0.18;67.60
56831;BME280;42713;42.676;23.352;2023-04-06T05:57:41;94432.75;;;0.19;67.85
56831;BME280;42713;42.676;23.352;2023-04-06T06:00:07;94427.66;;;0.26;67.93
56831;BME280;42713;42.676;23.352;2023-04-06T06:02:35;94418.16;;;0.26;68.20
56831;BME280;42713;42.676;23.352;2023-04-06T06:05:00;94432.91;;;0.39;68.32
56831;BME280;42713;42.676;23.352;2023-04-06T06:07:26;94423.22;;;0.41;67.90
56831;BME280;42713;42.676;23.352;2023-04-06T06:09:51;94424.59;;;0.37;67.84
56831;BME280;42713;42.676;23.352;2023-04-06T06:12:17;94416.69;;;0.39;68.17
56831;BME280;42713;42.676;23.352;2023-04-06T06:14:42;94422.38;;;0.34;68.31
56831;BME280;42713;42.676;23.352;2023-04-06T06:17:08;94435.88;;;0.36;68.30
56831;BME280;42713;42.676;23.352;2023-04-06T06:19:34;94415.84;;;0.32;68.63
56831;BME280;42713;42.676;23.352;2023-04-06T06:21:59;94425.09;;;0.26;69.05
56831;BME280;42713;42.676;23.352;2023-04-06T06:24:27;94441.72;;;0.23;69.10
56831;BME280;42713;42.676;23.352;2023-04-06T06:26:53;94434.34;;;0.20;69.28
56831;BME280;42713;42.676;23.352;2023-04-06T06:29:18;94431.34;;;0.17;69.05
56831;BME280;42713;42.676;23.352;2023-04-06T06:31:44;94428.94;;;0.15;69.36
56831;BME280;42713;42.676;23.352;2023-04-06T06:34:09;94427.47;;;0.27;69.44
56831;BME280;42713;42.676;23.352;2023-04-06T06:36:35;94432.75;;;0.41;69.41
56831;BME280;42713;42.676;23.352;2023-04-06T06:39:01;94426.13;;;0.53;68.67
56831;BME280;42713;42.676;23.352;2023-04-06T06:41:28;94426.97;;;0.60;68.38
56831;BME280;42713;42.676;23.352;2023-04-06T06:43:54;94446.75;;;0.60;68.52
56831;BME280;42713;42.676;23.352;2023-04-06T06:46:20;94435.66;;;0.59;68.06
56831;BME280;42713;42.676;23.352;2023-04-06T06:48:46;94430.47;;;0.53;68.85
56831;BME280;42713;42.676;23.352;2023-04-06T06:51:11;94435.31;;;0.63;68.79
56831;BME280;42713;42.676;23.352;2023-04-06T06:53:37;94438.16;;;0.74;68.40
56831;BME280;42713;42.676;23.352;2023-04-06T06:56:03;94422.78;;;0.88;67.10
56831;BME280;42713;42.676;23.352;2023-04-06T06:58:29;94437.34;;;0.74;67.12
56831;BME280;42713;42.676;23.352;2023-04-06T07:00:58;94445.06;;;0.67;66.87
56831;BME280;42713;42.676;23.352;2023-04-06T07:03:24;94431.34;;;0.67;67.63
56831;BME280;42713;42.676;23.352;2023-04-06T07:05:50;94438.22;;;0.81;67.14
56831;BME280;42713;42.676;23.352;2023-04-06T07:08:22;94418.03;;;0.91;67.48
56831;BME280;42713;42.676;23.352;2023-04-06T07:10:50;94419.31;;;1.09;65.86
56831;BME280;42713;42.676;23.352;2023-04-06T07:13:18;94424.13;;;1.12;66.51
56831;BME280;42713;42.676;23.352;2023-04-06T07:15:47;94424.69;;;1.14;66.39
56831;BME280;42713;42.676;23.352;2023-04-06T07:18:13;94435.69;;;0.95;66.30
56831;BME280;42713;42.676;23.352;2023-04-06T07:20:38;94404.78;;;1.01;66.09
56831;BME280;42713;42.676;23.352;2023-04-06T07:23:04;94454.56;;;0.95;65.75
56831;BME280;42713;42.676;23.352;2023-04-06T07:25:30;94412.91;;;0.98;66.43
56831;BME280;42713;42.676;23.352;2023-04-06T07:27:56;94444.50;;;1.07;66.19
56831;BME280;42713;42.676;23.352;2023-04-06T07:30:22;94421.44;;;0.99;66.76
56831;BME280;42713;42.676;23.352;2023-04-06T07:32:48;94427.88;;;1.16;66.41
56831;BME280;42713;42.676;23.352;2023-04-06T07:35:14;94434.56;;;1.39;66.69
56831;BME280;42713;42.676;23.352;2023-04-06T07:37:40;94427.63;;;1.46;64.93
56831;BME280;42713;42.676;23.352;2023-04-06T07:40:07;94420.81;;;1.25;65.09
56831;BME280;42713;42.676;23.352;2023-04-06T07:42:33;94420.97;;;1.17;65.37
56831;BME280;42713;42.676;23.352;2023-04-06T07:44:58;94420.75;;;1.18;65.33
56831;BME280;42713;42.676;23.352;2023-04-06T07:47:24;94431.56;;;1.35;64.83
56831;BME280;42713;42.676;23.352;2023-04-06T07:49:50;94434.84;;;1.16;64.35
56831;BME280;42713;42.676;23.352;2023-04-06T07:52:15;94419.75;;;1.13;65.18
56831;BME280;42713;42.676;23.352;2023-04-06T07:54:41;94405.09;;;1.20;65.00
56831;BME280;42713;42.676;23.352;2023-04-06T07:57:07;94429.31;;;1.26;65.91
56831;BME280;42713;42.676;23.352;2023-04-06T07:59:32;94432.31;;;1.22;65.69
56831;BME280;42713;42.676;23.352;2023-04-06T08:01:58;94412.66;;;1.28;65.53
56831;BME280;42713;42.676;23.352;2023-04-06T08:04:24;94411.19;;;1.54;65.54
56831;BME280;42713;42.676;23.352;2023-04-06T08:06:49;94427.47;;;1.54;64.68
56831;BME280;42713;42.676;23.352;2023-04-06T08:09:15;94429.22;;;1.47;64.63
56831;BME280;42713;42.676;23.352;2023-04-06T08:11:40;94413.94;;;1.46;64.84
56831;BME280;42713;42.676;23.352;2023-04-06T08:14:06;94415.13;;;1.50;64.17
56831;BME280;42713;42.676;23.352;2023-04-06T08:16:32;94384.38;;;1.62;64.00
56831;BME280;42713;42.676;23.352;2023-04-06T08:18:57;94395.72;;;1.67;64.11
56831;BME280;42713;42.676;23.352;2023-04-06T08:21:23;94414.84;;;1.80;62.87
56831;BME280;42713;42.676;23.352;2023-04-06T08:23:48;94401.75;;;1.88;62.92
56831;BME280;42713;42.676;23.352;2023-04-06T08:26:14;94411.50;;;1.99;61.83
56831;BME280;42713;42.676;23.352;2023-04-06T08:28:39;94408.72;;;2.01;61.55
56831;BME280;42713;42.676;23.352;2023-04-06T08:31:05;94430.19;;;2.01;61.42
56831;BME280;42713;42.676;23.352;2023-04-06T08:33:33;94418.25;;;2.00;61.00
56831;BME280;42713;42.676;23.352;2023-04-06T08:38:35;94417.22;;;1.88;61.42
56831;BME280;42713;42.676;23.352;2023-04-06T08:41:07;94405.13;;;1.82;61.48
56831;BME280;42713;42.676;23.352;2023-04-06T08:43:33;94401.16;;;1.93;61.23
56831;BME280;42713;42.676;23.352;2023-04-06T08:46:00;94411.13;;;2.16;61.81
56831;BME280;42713;42.676;23.352;2023-04-06T08:48:26;94430.63;;;2.18;60.45
56831;BME280;42713;42.676;23.352;2023-04-06T08:50:54;94415.13;;;2.18;60.60
56831;BME280;42713;42.676;23.352;2023-04-06T08:53:20;94441.13;;;2.17;60.12
56831;BME280;42713;42.676;23.352;2023-04-06T08:55:45;94440.16;;;2.25;59.49
56831;BME280;42713;42.676;23.352;2023-04-06T08:58:11;94430.22;;;2.35;59.84
56831;BME280;42713;42.676;23.352;2023-04-06T09:00:38;94400.19;;;2.27;59.87
56831;BME280;42713;42.676;23.352;2023-04-06T09:03:05;94410.56;;;2.41;59.29
56831;BME280;42713;42.676;23.352;2023-04-06T09:05:32;94425.84;;;2.42;58.37
56831;BME280;42713;42.676;23.352;2023-04-06T09:07:58;94407.94;;;2.27;59.35
56831;BME280;42713;42.676;23.352;2023-04-06T09:10:23;94400.22;;;2.41;58.66
56831;BME280;42713;42.676;23.352;2023-04-06T09:12:50;94399.41;;;2.60;59.00
56831;BME280;42713;42.676;23.352;2023-04-06T09:15:21;94407.16;;;2.47;58.26
56831;BME280;42713;42.676;23.352;2023-04-06T09:17:47;94410.75;;;2.39;58.68
56831;BME280;42713;42.676;23.352;2023-04-06T09:20:12;94398.63;;;2.46;58.46
56831;BME280;42713;42.676;23.352;2023-04-06T09:22:39;94399.59;;;2.65;58.16
56831;BME280;42713;42.676;23.352;2023-04-06T09:25:05;94411.16;;;2.70;57.28
56831;BME280;42713;42.676;23.352;2023-04-06T09:27:36;94387.25;;;2.74;57.43
56831;BME280;42713;42.676;23.352;2023-04-06T09:30:03;94403.56;;;2.82;57.45
56831;BME280;42713;42.676;23.352;2023-04-06T09:32:30;94398.16;;;2.90;58.07
56831;BME280;42713;42.676;23.352;2023-04-06T09:35:08;94419.06;;;2.88;58.08
56831;BME280;42713;42.676;23.352;2023-04-06T09:37:34;94419.09;;;2.75;58.22
56831;BME280;42713;42.676;23.352;2023-04-06T09:40:07;94402.97;;;2.79;57.67
56831;BME280;42713;42.676;23.352;2023-04-06T09:42:33;94385.84;;;2.85;57.90
56831;BME280;42713;42.676;23.352;2023-04-06T09:45:00;94425.22;;;3.01;57.40
56831;BME280;42713;42.676;23.352;2023-04-06T09:47:26;94397.00;;;2.92;57.19
56831;BME280;42713;42.676;23.352;2023-04-06T09:49:57;94404.50;;;3.14;57.40
56831;BME280;42713;42.676;23.352;2023-04-06T09:52:26;94386.19;;;3.16;56.13
56831;BME280;42713;42.676;23.352;2023-04-06T09:54:55;94390.53;;;3.22;56.60
56831;BME280;42713;42.676;23.352;2023-04-06T09:57:25;94413.84;;;3.22;55.83
56831;BME280;42713;42.676;23.352;2023-04-06T10:00:06;94398.69;;;3.19;55.23
56831;BME280;42713;42.676;23.352;2023-04-06T10:02:54;94393.72;;;3.31;55.32
56831;BME280;42713;42.676;23.352;2023-04-06T10:08:06;94390.78;;;3.59;54.93
56831;BME280;42713;42.676;23.352;2023-04-06T10:10:35;94413.91;;;3.61;53.28
56831;BME280;42713;42.676;23.352;2023-04-06T10:13:02;94409.97;;;3.45;53.20
56831;BME280;42713;42.676;23.352;2023-04-06T10:15:28;94398.00;;;3.57;53.68
56831;BME280;42713;42.676;23.352;2023-04-06T10:17:55;94412.66;;;3.70;53.06
56831;BME280;42713;42.676;23.352;2023-04-06T10:20:25;94388.13;;;3.79;53.75
56831;BME280;42713;42.676;23.352;2023-04-06T10:23:03;94395.53;;;3.69;53.60
56831;BME280;42713;42.676;23.352;2023-04-06T10:25:31;94397.53;;;3.67;53.66
56831;BME280;42713;42.676;23.352;2023-04-06T10:30:26;94378.28;;;3.56;53.27
56831;BME280;42713;42.676;23.352;2023-04-06T10:32:53;94385.19;;;3.69;53.04
56831;BME280;42713;42.676;23.352;2023-04-06T10:35:18;94395.19;;;3.58;52.88
56831;BME280;42713;42.676;23.352;2023-04-06T10:37:52;94383.00;;;3.66;52.69
56831;BME280;42713;42.676;23.352;2023-04-06T10:40:25;94381.75;;;3.75;52.57
56831;BME280;42713;42.676;23.352;2023-04-06T10:42:52;94377.28;;;3.89;52.24
56831;BME280;42713;42.676;23.352;2023-04-06T10:45:20;94381.84;;;3.94;51.56
56831;BME280;42713;42.676;23.352;2023-04-06T10:47:46;94382.44;;;3.96;52.38
56831;BME280;42713;42.676;23.352;2023-04-06T10:50:14;94380.97;;;4.07;52.61
56831;BME280;42713;42.676;23.352;2023-04-06T10:52:40;94384.56;;;4.05;51.70
56831;BME280;42713;42.676;23.352;2023-04-06T10:55:08;94374.72;;;4.14;51.89
56831;BME280;42713;42.676;23.352;2023-04-06T10:57:35;94381.78;;;4.32;51.79
56831;BME280;42713;42.676;23.352;2023-04-06T11:00:06;94378.19;;;4.33;51.22
56831;BME280;42713;42.676;23.352;2023-04-06T11:02:34;94393.75;;;4.33;51.39
56831;BME280;42713;42.676;23.352;2023-04-06T11:05:00;94373.44;;;4.30;51.21
56831;BME280;42713;42.676;23.352;2023-04-06T11:07:27;94386.38;;;4.30;51.90
56831;BME280;42713;42.676;23.352;2023-04-06T11:09:54;94374.28;;;4.24;52.15
56831;BME280;42713;42.676;23.352;2023-04-06T11:12:24;94364.97;;;4.42;52.19
56831;BME280;42713;42.676;23.352;2023-04-06T11:15:00;94358.22;;;4.59;50.48
56831;BME280;42713;42.676;23.352;2023-04-06T11:17:34;94362.66;;;4.33;50.66
56831;BME280;42713;42.676;23.352;2023-04-06T11:20:01;94372.84;;;4.28;49.78
56831;BME280;42713;42.676;23.352;2023-04-06T11:22:27;94366.97;;;4.14;50.92
56831;BME280;42713;42.676;23.352;2023-04-06T11:25:04;94369.66;;;4.01;51.61
56831;BME280;42713;42.676;23.352;2023-04-06T11:27:31;94355.19;;;4.18;51.28
56831;BME280;42713;42.676;23.352;2023-04-06T11:29:59;94361.44;;;4.04;50.97
56831;BME280;42713;42.676;23.352;2023-04-06T11:32:25;94352.06;;;4.03;51.42
56831;BME280;42713;42.676;23.352;2023-04-06T11:34:50;94350.91;;;4.31;50.65
56831;BME280;42713;42.676;23.352;2023-04-06T11:37:16;94348.13;;;4.51;49.91
56831;BME280;42713;42.676;23.352;2023-04-06T11:39:50;94353.16;;;4.46;49.60
56831;BME280;42713;42.676;23.352;2023-04-06T11:42:27;94360.69;;;4.54;49.59
56831;BME280;42713;42.676;23.352;2023-04-06T11:44:54;94343.47;;;4.60;49.78
56831;BME280;42713;42.676;23.352;2023-04-06T11:47:27;94355.28;;;4.30;49.93
56831;BME280;42713;42.676;23.352;2023-04-06T11:49:53;94347.50;;;4.05;51.01
56831;BME280;42713;42.676;23.352;2023-04-06T11:52:21;94352.22;;;4.15;50.69
56831;BME280;42713;42.676;23.352;2023-04-06T11:54:48;94323.16;;;4.06;51.30
56831;BME280;42713;42.676;23.352;2023-04-06T11:57:14;94334.44;;;4.18;51.72
56831;BME280;42713;42.676;23.352;2023-04-06T11:59:40;94347.59;;;4.17;51.08
56831;BME280;42713;42.676;23.352;2023-04-06T12:02:06;94327.25;;;4.20;51.42
56831;BME280;42713;42.676;23.352;2023-04-06T12:04:32;94332.53;;;4.32;51.42
56831;BME280;42713;42.676;23.352;2023-04-06T12:06:58;94332.81;;;4.24;51.38
56831;BME280;42713;42.676;23.352;2023-04-06T12:09:24;94326.41;;;4.27;51.13
56831;BME280;42713;42.676;23.352;2023-04-06T12:11:50;94355.31;;;4.24;50.92
56831;BME280;42713;42.676;23.352;2023-04-06T12:14:15;94354.91;;;4.01;51.38
56831;BME280;42713;42.676;23.352;2023-04-06T12:16:42;94321.19;;;4.01;51.49
56831;BME280;42713;42.676;23.352;2023-04-06T12:19:07;94329.59;;;3.97;51.62
56831;BME280;42713;42.676;23.352;2023-04-06T12:21:34;94344.31;;;4.03;51.82
56831;BME280;42713;42.676;23.352;2023-04-06T12:24:02;94317.94;;;4.13;51.47
56831;BME280;42713;42.676;23.352;2023-04-06T12:26:28;94329.44;;;4.17;51.69
56831;BME280;42713;42.676;23.352;2023-04-06T12:28:53;94319.78;;;4.31;51.63
56831;BME280;42713;42.676;23.352;2023-04-06T12:31:20;94327.59;;;4.49;50.93
56831;BME280;42713;42.676;23.352;2023-04-06T12:33:50;94330.72;;;4.33;51.12
56831;BME280;42713;42.676;23.352;2023-04-06T12:36:18;94324.22;;;4.24;51.05
56831;BME280;42713;42.676;23.352;2023-04-06T12:38:47;94318.25;;;4.23;50.85
56831;BME280;42713;42.676;23.352;2023-04-06T12:41:13;94319.88;;;4.43;51.31
56831;BME280;42713;42.676;23.352;2023-04-06T12:43:40;94324.78;;;4.51;49.94
56831;BME280;42713;42.676;23.352;2023-04-06T12:46:06;94315.59;;;4.55;49.75
56831;BME280;42713;42.676;23.352;2023-04-06T12:48:32;94319.25;;;4.47;49.60
56831;BME280;42713;42.676;23.352;2023-04-06T12:50:59;94323.13;;;4.38;49.75
56831;BME280;42713;42.676;23.352;2023-04-06T12:53:25;94307.97;;;4.35;49.63
56831;BME280;42713;42.676;23.352;2023-04-06T12:55:51;94307.19;;;4.34;49.88
56831;BME280;42713;42.676;23.352;2023-04-06T12:58:17;94327.03;;;4.47;50.03
56831;BME280;42713;42.676;23.352;2023-04-06T13:00:43;94311.16;;;4.37;50.01